createdAt,value
2019-02-26T00:03:25.918Z,68
2019-02-26T00:08:23.962Z,70
2019-02-26T00:13:27.093Z,66.7
2019-02-26T00:18:23.744Z,69.1
2019-02-26T00:23:23.287Z,70.9
2019-02-26T00:28:22.059Z,71.9
2019-02-26T00:33:24.635Z,70.1
2019-02-26T00:38:20.102Z,69.9
2019-02-26T00:43:25.267Z,71.8
2019-02-26T00:48:20.332Z,71.5
2019-02-26T00:53:21.304Z,72.7
2019-02-26T00:58:18.221Z,73.4
2019-02-26T01:03:15.548Z,70.1
2019-02-26T01:08:15.583Z,72
2019-02-26T01:13:10.921Z,73.4
2019-02-26T01:18:07.259Z,71.4
2019-02-26T01:23:03.795Z,71.9
2019-02-26T01:28:00.706Z,73
2019-02-26T01:33:02.489Z,72.5
2019-02-26T01:38:00.655Z,72.9
2019-02-26T01:43:01.024Z,72
2019-02-26T01:47:57.678Z,72.9
2019-02-26T01:52:56.278Z,73.3
2019-02-26T01:57:53.565Z,73.7
2019-02-26T02:02:50.172Z,71.6
2019-02-26T02:07:51.744Z,73.6
2019-02-26T02:12:48.473Z,70.7
2019-02-26T02:17:44.865Z,73
2019-02-26T02:22:44.385Z,71.9
2019-02-26T02:27:40.213Z,72
2019-02-26T02:32:36.550Z,70.7
2019-02-26T02:37:33.022Z,71.9
2019-02-26T02:42:29.370Z,71.2
2019-02-26T02:47:33.702Z,73.5
2019-02-26T02:52:35.102Z,73.4
2019-02-26T02:57:34.502Z,72.5
2019-02-26T03:02:29.941Z,72.1
2019-02-26T03:07:29.515Z,73.9
2019-02-26T03:12:25.049Z,73.4
2019-02-26T03:17:21.048Z,72.9
2019-02-26T03:22:21.818Z,72.9
2019-02-26T03:27:17.075Z,73.3
2019-02-26T03:32:13.371Z,74.5
2019-02-26T03:37:11.279Z,74.3
2019-02-26T03:42:10.558Z,72.7
2019-02-26T03:47:06.583Z,72.9
2019-02-26T03:52:02.876Z,72.9
2019-02-26T03:56:58.468Z,72.3
2019-02-26T04:01:54.592Z,73
2019-02-26T04:06:50.814Z,72.5
2019-02-26T04:11:52.590Z,73.3
2019-02-26T04:16:47.591Z,72.6
2019-02-26T04:21:43.807Z,71.9
2019-02-26T04:26:39.416Z,72.4
2019-02-26T04:31:35.892Z,73.6
2019-02-26T04:36:36.875Z,73.3
2019-02-26T04:41:32.935Z,73.8
2019-02-26T04:46:36.664Z,74.9
2019-02-26T04:51:39.095Z,74.3
2019-02-26T04:56:40.195Z,75.1
2019-02-26T05:01:36.948Z,75
2019-02-26T05:06:33.326Z,75.1
2019-02-26T05:11:37.646Z,74.9
2019-02-26T05:16:40.134Z,75.3
2019-02-26T05:21:38.065Z,74.3
2019-02-26T05:26:33.921Z,73
2019-02-26T05:31:35.101Z,73.2
2019-02-26T05:36:36.722Z,74.7
2019-02-26T05:41:32.513Z,73.3
2019-02-26T05:46:30.032Z,74.5
2019-02-26T05:51:30.284Z,75.6
2019-02-26T05:56:27.846Z,74.7
2019-02-26T06:01:27.806Z,72.3
2019-02-26T06:06:25.262Z,69.2
2019-02-26T06:11:23.250Z,64.8
2019-02-26T06:16:24.365Z,68.3
2019-02-26T06:21:23.976Z,66.8
2019-02-26T06:26:21.242Z,64
2019-02-26T06:31:24.660Z,64.8
2019-02-26T06:36:25.596Z,67.8
2019-02-26T06:41:21.688Z,62.9
2019-02-26T06:46:19.080Z,61
2019-02-26T06:51:15.485Z,59
2019-02-26T06:56:11.017Z,62.8
2019-02-26T07:01:12.013Z,62.2
2019-02-26T07:06:08.612Z,64.1
2019-02-26T07:11:04.622Z,62.5
2019-02-26T07:16:05.285Z,63.5
2019-02-26T07:21:01.102Z,60.1
2019-02-26T07:25:57.720Z,61.7
2019-02-26T07:30:54.089Z,61.8
2019-02-26T07:35:50.136Z,63.5
2019-02-26T07:40:47.485Z,60.6
2019-02-26T07:45:44.221Z,61.5
2019-02-26T07:50:46.267Z,64.6
2019-02-26T07:55:43.609Z,61.5
2019-02-26T08:00:46.624Z,63
2019-02-26T08:05:41.890Z,59
2019-02-26T08:10:42.745Z,59
2019-02-26T08:15:40.118Z,59.2
2019-02-26T08:20:40.272Z,60
2019-02-26T08:25:36.037Z,57.3
2019-02-26T08:30:32.946Z,55
2019-02-26T08:35:29.914Z,56
2019-02-26T08:40:26.475Z,53.7
2019-02-26T08:45:26.140Z,52.3
2019-02-26T08:50:21.704Z,51.8
2019-02-26T08:55:24.431Z,51.2
2019-02-26T09:00:19.404Z,48.8
2019-02-26T09:05:15.775Z,50
2019-02-26T09:10:18.285Z,47
2019-02-26T09:15:16.021Z,45.9
2019-02-26T09:20:14.861Z,44
2019-02-26T09:25:12.777Z,43.7
2019-02-26T09:30:13.450Z,39.1
2019-02-26T09:35:08.092Z,41.7
2019-02-26T09:40:05.106Z,42.1
2019-02-26T09:45:00.894Z,41.9
2019-02-26T09:49:58.681Z,39.6
2019-02-26T09:54:55.457Z,39.5
2019-02-26T09:59:57.314Z,41
2019-02-26T10:04:54.699Z,39.6
2019-02-26T10:09:50.148Z,40.3
2019-02-26T10:14:52.319Z,37.7
2019-02-26T10:19:49.913Z,39.9
2019-02-26T10:24:46.829Z,39.3
2019-02-26T10:29:47.256Z,38.6
2019-02-26T10:34:44.643Z,38
2019-02-26T10:39:39.661Z,36.4
2019-02-26T10:44:37.080Z,36.3
2019-02-26T10:49:35.446Z,35.8
2019-02-26T10:54:40.428Z,38
2019-02-26T10:59:38.287Z,37.1
2019-02-26T11:04:40.971Z,34.2
2019-02-26T11:09:35.394Z,36.4
2019-02-26T11:14:36.207Z,38.8
2019-02-26T11:19:39.388Z,34.9
2019-02-26T11:24:36.482Z,37.1
2019-02-26T11:29:36.313Z,37
2019-02-26T11:34:38.417Z,34.6
2019-02-26T11:39:35.166Z,32.6
2019-02-26T11:44:29.991Z,33.2
2019-02-26T11:49:27.846Z,32.6
2019-02-26T11:54:24.298Z,33.8
2019-02-26T11:59:20.068Z,33.2
2019-02-26T12:04:17.435Z,34.2
2019-02-26T12:09:16.126Z,34.6
2019-02-26T12:14:16.877Z,32.4
2019-02-26T12:19:14.640Z,32.1
2019-02-26T12:24:12.874Z,31.4
2019-02-26T12:29:08.837Z,33.3
2019-02-26T12:34:05.357Z,33.8
2019-02-26T12:39:02.749Z,33.9
2019-02-26T12:44:03.640Z,34.1
2019-02-26T12:49:05.610Z,34.1
2019-02-26T12:54:07.022Z,32.5
2019-02-26T12:59:07.821Z,34.2
2019-02-26T13:04:03.758Z,34.6
2019-02-26T13:09:00.208Z,34.2
2019-02-26T13:13:56.644Z,36.3
2019-02-26T13:19:03.800Z,37.3
2019-02-26T13:24:11.623Z,36.2
2019-02-26T13:29:06.044Z,36.3
2019-02-26T13:34:02.854Z,36.3
2019-02-26T13:38:59.963Z,36.2
2019-02-26T13:43:55.763Z,35.7
2019-02-26T13:48:52.109Z,35.9
2019-02-26T13:53:49.261Z,35.5
2019-02-26T13:58:46.111Z,35.8
2019-02-26T14:03:43.017Z,37.4
2019-02-26T14:08:39.614Z,36.8
2019-02-26T14:13:36.653Z,36.5
2019-02-26T14:18:33.732Z,37.1
2019-02-26T14:23:35.821Z,37.5
2019-02-26T14:28:31.631Z,39.5
2019-02-26T14:33:27.726Z,38.9
2019-02-26T14:38:24.746Z,38.2
2019-02-26T14:43:21.322Z,39.3
2019-02-26T14:48:18.231Z,40.2
2019-02-26T14:53:15.191Z,39.8
2019-02-26T14:58:11.439Z,39.7
2019-02-26T15:03:07.817Z,41.3
2019-02-26T15:08:04.408Z,40
2019-02-26T15:13:00.840Z,39.9
2019-02-26T15:17:57.358Z,40
2019-02-26T15:22:53.997Z,41
2019-02-26T15:27:50.546Z,40.8
2019-02-26T15:32:46.770Z,41.3
2019-02-26T15:37:43.499Z,40.5
2019-02-26T15:42:41.859Z,42.2
2019-02-26T15:47:37.987Z,40.8
2019-02-26T15:52:34.531Z,43.2
2019-02-26T15:57:31.804Z,41.5
2019-02-26T16:02:29.339Z,43.2
2019-02-26T16:07:25.481Z,44.6
2019-02-26T16:12:21.706Z,45
2019-02-26T16:17:18.225Z,46.4
2019-02-26T16:22:15.111Z,45.8
2019-02-26T16:27:11.756Z,48.1
2019-02-26T16:32:07.257Z,48.5
2019-02-26T16:37:08.044Z,47.9
2019-02-26T16:42:04.033Z,48.6
2019-02-26T16:47:01.099Z,48
2019-02-26T16:51:57.712Z,49
2019-02-26T16:56:55.387Z,51.4
2019-02-26T17:01:54.938Z,51.4
2019-02-26T17:06:54.486Z,50.9
2019-02-26T17:11:50.510Z,51.9
2019-02-26T17:16:46.784Z,52
2019-02-26T17:21:44.065Z,51.1
2019-02-26T17:26:39.785Z,51.3
2019-02-26T17:31:36.598Z,52
2019-02-26T17:36:36.115Z,52.9
2019-02-26T17:41:32.072Z,54.3
2019-02-26T17:46:29.111Z,54.6
2019-02-26T17:51:26.101Z,53.8
2019-02-26T17:56:27.179Z,54.2
2019-02-26T18:01:22.676Z,53.1
2019-02-26T18:06:18.833Z,52.7
2019-02-26T18:11:15.481Z,54.2
2019-02-26T18:16:11.733Z,57.8
2019-02-26T18:21:08.503Z,54.6
2019-02-26T18:26:05.789Z,58.1
2019-02-26T18:31:01.962Z,59.6
2019-02-26T18:35:59.527Z,60.6
2019-02-26T18:40:55.783Z,61.1
2019-02-26T18:45:53.034Z,59
2019-02-26T18:50:50.089Z,59
2019-02-26T18:55:47.150Z,56
2019-02-26T19:00:43.305Z,58.6
2019-02-26T19:05:39.961Z,60.5
2019-02-26T19:10:36.803Z,59.7
2019-02-26T19:15:33.791Z,57.7
2019-02-26T19:20:30.770Z,57.1
2019-02-26T19:25:27.711Z,57.4
2019-02-26T19:30:24.134Z,58.9
2019-02-26T19:35:20.954Z,58.4
2019-02-26T19:40:17.436Z,58.9
2019-02-26T19:45:13.418Z,60.7
2019-02-26T19:50:12.497Z,63.7
2019-02-26T19:55:09.433Z,59.5
2019-02-26T20:00:06.129Z,59.7
2019-02-26T20:05:02.304Z,64.8
2019-02-26T20:09:59.857Z,60.6
2019-02-26T20:14:57.027Z,60.4
2019-02-26T20:19:53.392Z,63.3
2019-02-26T20:24:49.285Z,65.9
2019-02-26T20:29:45.714Z,67.1
2019-02-26T20:34:42.617Z,66.7
2019-02-26T20:39:44.121Z,66.4
2019-02-26T20:44:45.388Z,65.7
2019-02-26T20:49:40.767Z,66.5
2019-02-26T20:54:37.539Z,65.4
2019-02-26T20:59:34.513Z,65.5
2019-02-26T21:04:30.879Z,65
2019-02-26T21:09:27.209Z,64.8
2019-02-26T21:14:23.789Z,64.5
2019-02-26T21:19:20.587Z,65.6
2019-02-26T21:24:17.557Z,63.4
2019-02-26T21:29:14.915Z,62
2019-02-26T21:34:11.548Z,61.3
2019-02-26T21:39:11.665Z,61.8
2019-02-26T21:44:09.688Z,62.5
2019-02-26T21:49:10.589Z,62.9
2019-02-26T21:54:06.162Z,63.2
2019-02-26T21:59:02.741Z,63.1
2019-02-26T22:03:59.320Z,64.8
2019-02-26T22:08:57.870Z,64.3
2019-02-26T22:13:53.975Z,64.8
2019-02-26T22:18:50.062Z,67.5
2019-02-26T22:23:46.696Z,68.1
2019-02-26T22:28:43.269Z,68.8
2019-02-26T22:33:46.170Z,70.6
2019-02-26T22:38:41.675Z,70.8
2019-02-26T22:43:38.024Z,70.6
2019-02-26T22:48:34.673Z,70.4
2019-02-26T22:53:31.376Z,72
2019-02-26T22:58:28.211Z,71.7
2019-02-26T23:03:24.903Z,72.1
2019-02-26T23:08:21.489Z,71.5
2019-02-26T23:13:18.208Z,73.4
2019-02-26T23:18:14.658Z,70.8
2019-02-26T23:23:10.869Z,74.4
2019-02-26T23:28:06.642Z,73.2
2019-02-26T23:33:02.892Z,74.7
2019-02-26T23:37:59.365Z,74.5
2019-02-26T23:42:55.849Z,73
2019-02-26T23:47:52.065Z,70.9
2019-02-26T23:52:48.785Z,70
2019-02-26T23:57:45.346Z,68.4
